Time;durP1;ratioP1;P1;durP2;ratioP2;P2;SDS_P1;SDS_P2;PMS_P1;PMS_P2;Temp;Humidity;BMP_temperature;BMP_pressure;BME280_temperature;BME280_humidity;BME280_pressure;Samples;Min_cycle;Max_cycle;Signal;HPM_P1;HPM_P2
2021/10/17 06:14:23;;;;;;;13.68;7.50;;;10.60;78.40;;;;;;5071804;28;20051;-78
2021/10/17 06:16:48;;;;;;;16.92;7.90;;;10.60;78.50;;;;;;5071721;28;20102;-72
2021/10/17 06:19:14;;;;;;;12.60;7.55;;;10.60;78.50;;;;;;5080985;28;20028;-72
2021/10/17 06:21:40;;;;;;;11.57;7.35;;;10.60;78.60;;;;;;5084090;28;20107;-72
2021/10/17 06:24:05;;;;;;;10.98;7.60;;;10.60;78.60;;;;;;5089507;28;20029;-73
2021/10/17 06:26:31;;;;;;;12.85;7.95;;;10.60;78.60;;;;;;5064986;28;20035;-78
2021/10/17 06:28:56;;;;;;;13.40;7.72;;;10.60;78.70;;;;;;5073932;28;20119;-78
2021/10/17 06:31:22;;;;;;;13.30;7.38;;;10.60;78.70;;;;;;5085042;28;20039;-78
2021/10/17 06:33:48;;;;;;;14.95;8.23;;;10.60;78.70;;;;;;5105639;28;20359;-78
2021/10/17 06:36:14;;;;;;;13.45;8.18;;;10.70;78.80;;;;;;5098414;28;20139;-78
2021/10/17 06:38:39;;;;;;;13.95;8.23;;;10.70;78.90;;;;;;5082305;28;20125;-79
2021/10/17 06:41:05;;;;;;;13.77;8.10;;;10.70;78.90;;;;;;5069349;28;20461;-73
2021/10/17 06:43:31;;;;;;;15.35;7.85;;;10.70;79.00;;;;;;5104001;28;20028;-73
2021/10/17 06:45:57;;;;;;;11.90;7.78;;;10.70;79.10;;;;;;5101752;28;20028;-73
2021/10/17 06:48:22;;;;;;;15.73;8.32;;;10.70;79.20;;;;;;5095938;28;20072;-73
2021/10/17 06:50:48;;;;;;;15.73;8.48;;;10.70;79.20;;;;;;5079217;28;20047;-72
2021/10/17 06:53:13;;;;;;;12.07;7.80;;;10.70;79.00;;;;;;5081815;28;20436;-77
2021/10/17 06:55:39;;;;;;;13.18;8.52;;;10.80;79.10;;;;;;5095743;28;20028;-77
2021/10/17 06:58:05;;;;;;;14.52;8.80;;;10.70;79.20;;;;;;5089358;28;20040;-77
2021/10/17 07:00:30;;;;;;;12.98;7.55;;;10.70;79.20;;;;;;5063424;28;20402;-77
2021/10/17 07:02:56;;;;;;;15.30;8.98;;;10.80;79.50;;;;;;5091981;28;20506;-77
2021/10/17 07:05:22;;;;;;;15.82;8.80;;;10.80;79.50;;;;;;5098583;28;20115;-73
2021/10/17 07:07:47;;;;;;;17.10;8.77;;;10.80;79.70;;;;;;5100011;28;20089;-77
2021/10/17 07:10:13;;;;;;;14.90;9.05;;;10.90;79.50;;;;;;5095991;28;20586;-72
2021/10/17 07:12:39;;;;;;;17.30;9.20;;;10.90;79.50;;;;;;5071473;28;20027;-72
2021/10/17 07:15:05;;;;;;;15.23;8.07;;;10.90;79.40;;;;;;5080957;28;20560;-72
2021/10/17 07:17:30;;;;;;;15.75;8.70;;;10.90;79.30;;;;;;5072524;28;20058;-72
2021/10/17 07:19:56;;;;;;;17.00;8.98;;;11.00;79.40;;;;;;5069232;28;20103;-72
2021/10/17 07:22:22;;;;;;;11.50;8.38;;;11.00;79.10;;;;;;5088159;28;20355;-77
2021/10/17 07:24:47;;;;;;;15.02;8.77;;;11.00;78.90;;;;;;5071578;28;20368;-73
2021/10/17 07:27:13;;;;;;;14.10;9.00;;;11.10;79.00;;;;;;5070525;28;20043;-72
2021/10/17 07:29:39;;;;;;;16.25;9.02;;;11.10;78.20;;;;;;5083766;28;20386;-77
2021/10/17 07:32:05;;;;;;;19.13;8.95;;;11.00;78.30;;;;;;5066749;28;20031;-73
2021/10/17 07:34:30;;;;;;;17.52;8.55;;;11.10;77.90;;;;;;5067722;28;20077;-73
2021/10/17 07:36:56;;;;;;;15.48;8.20;;;11.10;77.70;;;;;;5062337;28;20028;-73
2021/10/17 07:39:22;;;;;;;14.82;7.85;;;11.10;77.90;;;;;;5063389;28;20089;-74
2021/10/17 07:41:48;;;;;;;15.35;8.50;;;11.20;77.90;;;;;;5069927;28;20129;-73
2021/10/17 07:44:18;;;;;;;17.58;9.07;;;11.20;77.60;;;;;;5088268;28;20032;-79
2021/10/17 07:46:44;;;;;;;15.10;7.93;;;11.20;76.50;;;;;;5065888;28;20028;-79
2021/10/17 07:49:10;;;;;;;15.15;8.30;;;11.30;77.00;;;;;;5086181;28;20410;-79
2021/10/17 07:51:36;;;;;;;15.02;7.70;;;11.30;76.80;;;;;;5088556;28;20070;-79
2021/10/17 07:54:01;;;;;;;13.32;8.20;;;11.30;76.80;;;;;;5072497;28;20044;-73
2021/10/17 07:56:27;;;;;;;14.43;8.93;;;11.40;76.30;;;;;;5070644;28;20057;-73
2021/10/17 07:58:53;;;;;;;18.27;8.85;;;11.40;75.00;;;;;;5089112;28;20031;-73
2021/10/17 08:01:19;;;;;;;14.50;7.45;;;11.40;74.90;;;;;;5073429;28;20027;-79
2021/10/17 08:03:45;;;;;;;14.77;7.63;;;11.50;74.50;;;;;;5070250;28;20027;-73
2021/10/17 08:06:11;;;;;;;16.58;7.07;;;11.50;75.00;;;;;;5061694;28;20467;-73
2021/10/17 08:08:37;;;;;;;11.77;7.05;;;11.50;75.20;;;;;;5076686;28;20119;-78
2021/10/17 08:11:03;;;;;;;15.27;8.40;;;11.50;74.80;;;;;;5074563;28;20461;-77
2021/10/17 08:13:29;;;;;;;13.10;7.53;;;11.60;74.80;;;;;;5071702;28;20136;-77
2021/10/17 08:15:55;;;;;;;13.00;7.13;;;11.60;74.40;;;;;;5041624;28;20057;-78
2021/10/17 08:18:22;;;;;;;12.15;6.68;;;11.60;74.20;;;;;;5068060;28;20020;-78
2021/10/17 08:20:48;;;;;;;13.32;7.85;;;11.60;74.20;;;;;;5085129;28;20067;-72
2021/10/17 08:23:14;;;;;;;12.18;6.63;;;11.70;74.00;;;;;;5085021;28;20024;-77
2021/10/17 08:25:40;;;;;;;15.35;7.70;;;11.70;74.50;;;;;;5056050;28;20035;-73
2021/10/17 08:28:06;;;;;;;14.07;6.80;;;11.70;74.20;;;;;;5065076;28;20037;-77
2021/10/17 08:30:31;;;;;;;12.50;7.55;;;11.70;73.50;;;;;;5052005;28;20024;-72
2021/10/17 08:32:57;;;;;;;17.27;7.88;;;11.70;73.70;;;;;;5050551;28;20550;-78
2021/10/17 08:35:23;;;;;;;14.52;7.32;;;11.70;72.50;;;;;;5064216;28;20025;-73
2021/10/17 08:37:49;;;;;;;11.20;7.57;;;11.70;72.10;;;;;;5065683;28;20079;-78
2021/10/17 08:40:14;;;;;;;16.80;7.65;;;11.70;72.00;;;;;;5070041;28;20043;-78
2021/10/17 08:42:42;;;;;;;13.48;6.97;;;11.80;71.70;;;;;;5077749;28;20135;-78
2021/10/17 08:45:08;;;;;;;15.27;7.43;;;11.80;72.20;;;;;;5074197;28;20817;-77
2021/10/17 08:47:34;;;;;;;11.23;6.90;;;11.80;71.60;;;;;;5084639;28;20032;-73
2021/10/17 08:50:00;;;;;;;14.80;8.07;;;11.80;71.80;;;;;;5084733;28;20107;-73
2021/10/17 08:52:26;;;;;;;16.15;8.02;;;11.90;72.10;;;;;;5064407;28;20395;-73
2021/10/17 08:54:55;;;;;;;13.88;8.27;;;11.90;72.10;;;;;;5086238;28;20043;-73
2021/10/17 08:57:20;;;;;;;12.90;6.90;;;12.00;72.70;;;;;;5067448;28;20024;-73
2021/10/17 08:59:48;;;;;;;15.10;7.88;;;12.00;72.70;;;;;;5038290;28;20490;-72
2021/10/17 09:02:15;;;;;;;14.48;7.80;;;12.00;72.20;;;;;;5085840;28;20043;-73
2021/10/17 09:04:42;;;;;;;16.30;7.20;;;12.00;72.00;;;;;;5076668;28;20024;-72
2021/10/17 09:07:18;;;;;;;15.13;6.95;;;12.10;73.00;;;;;;5047200;28;20093;-78
2021/10/17 09:10:05;;;;;;;15.82;7.30;;;12.10;73.10;;;;;;5083641;28;20405;-77
2021/10/17 09:12:30;;;;;;;15.40;7.32;;;12.10;72.10;;;;;;5076594;28;20115;-72
2021/10/17 09:15:27;;;;;;;15.95;8.82;;;12.10;72.50;;;;;;5056352;28;20139;-73
2021/10/17 09:18:14;;;;;;;13.55;6.47;;;12.10;72.40;;;;;;5069873;28;20059;-74
2021/10/17 09:20:46;;;;;;;17.60;7.85;;;12.10;72.10;;;;;;5080637;28;20027;-74
2021/10/17 09:23:12;;;;;;;13.47;7.30;;;12.10;71.70;;;;;;5090746;28;20225;-80
2021/10/17 09:25:38;;;;;;;16.20;7.82;;;12.10;71.20;;;;;;5082451;28;20113;-80
2021/10/17 09:28:17;;;;;;;18.83;8.40;;;12.20;69.60;;;;;;5075865;28;20082;-73
2021/10/17 09:30:55;;;;;;;9.70;6.90;;;12.20;70.10;;;;;;5081222;28;20032;-73
2021/10/17 09:33:24;;;;;;;13.18;6.97;;;12.20;70.40;;;;;;5060274;28;20488;-73
2021/10/17 09:35:50;;;;;;;14.55;7.05;;;12.20;71.00;;;;;;5069068;28;20081;-73
2021/10/17 09:38:16;;;;;;;11.50;6.80;;;12.30;70.60;;;;;;5060649;28;20032;-73
2021/10/17 09:40:44;;;;;;;10.43;7.15;;;12.30;71.30;;;;;;5097891;28;20399;-73
2021/10/17 09:43:14;;;;;;;14.75;6.50;;;12.40;70.00;;;;;;5085929;28;20077;-73
2021/10/17 09:45:41;;;;;;;15.35;7.57;;;12.40;70.60;;;;;;5072258;28;20057;-74
2021/10/17 09:48:08;;;;;;;17.45;7.78;;;12.50;70.30;;;;;;5069527;28;20032;-73
2021/10/17 09:50:34;;;;;;;15.23;6.90;;;12.50;69.80;;;;;;5080369;28;20036;-73
2021/10/17 09:53:11;;;;;;;11.73;7.07;;;12.50;70.50;;;;;;5080761;28;20036;-80
2021/10/17 09:55:37;;;;;;;11.80;8.40;;;12.50;70.30;;;;;;5073831;28;20550;-80
2021/10/17 09:58:06;;;;;;;13.02;7.63;;;12.60;70.30;;;;;;5066987;28;20028;-80
2021/10/17 10:00:36;;;;;;;11.57;6.57;;;12.60;68.90;;;;;;5075304;28;20081;-82
2021/10/17 10:03:06;;;;;;;17.83;7.78;;;12.70;70.10;;;;;;5066791;28;20112;-82
2021/10/17 10:05:34;;;;;;;12.15;7.22;;;12.70;69.20;;;;;;5091979;28;20046;-82
2021/10/17 10:08:05;;;;;;;18.30;9.23;;;12.70;68.70;;;;;;5091721;28;20028;-74
2021/10/17 10:10:32;;;;;;;11.82;7.10;;;12.70;68.60;;;;;;5067763;28;20024;-81
2021/10/17 10:13:01;;;;;;;12.60;6.65;;;12.80;68.10;;;;;;5092236;28;20072;-74
2021/10/17 10:15:27;;;;;;;12.70;6.95;;;12.80;68.80;;;;;;5071328;28;20139;-74
2021/10/17 10:17:54;;;;;;;15.63;6.97;;;12.90;68.40;;;;;;5083579;28;20032;-74
2021/10/17 10:20:24;;;;;;;13.40;7.10;;;12.90;68.20;;;;;;5071059;28;20028;-83
2021/10/17 10:22:54;;;;;;;13.35;6.53;;;12.90;66.70;;;;;;5070455;28;20045;-82
2021/10/17 10:25:20;;;;;;;12.30;6.20;;;12.90;66.50;;;;;;5070661;28;20404;-82
2021/10/17 10:27:47;;;;;;;12.07;7.18;;;13.00;66.00;;;;;;5076712;28;20081;-82
2021/10/17 10:30:24;;;;;;;13.05;6.22;;;13.00;65.50;;;;;;5093047;28;20028;-72
2021/10/17 10:33:26;;;;;;;8.98;5.28;;;13.00;66.30;;;;;;5073227;28;20031;-71
2021/10/17 10:36:13;;;;;;;13.88;6.57;;;13.10;66.90;;;;;;5085505;28;20059;-72
2021/10/17 10:38:53;;;;;;;13.30;6.10;;;13.10;66.40;;;;;;5085657;28;20038;-80
2021/10/17 10:41:30;;;;;;;13.55;6.90;;;13.10;65.70;;;;;;5063841;28;20070;-80
2021/10/17 10:44:17;;;;;;;10.48;6.20;;;13.10;65.40;;;;;;5086010;28;20024;-71
2021/10/17 10:46:44;;;;;;;10.23;6.28;;;13.20;66.20;;;;;;5081869;28;20481;-71
2021/10/17 10:49:10;;;;;;;11.40;5.97;;;13.40;66.10;;;;;;5084388;28;20089;-72
2021/10/17 10:51:46;;;;;;;13.25;6.47;;;13.50;66.50;;;;;;5066114;28;20119;-71
2021/10/17 10:54:24;;;;;;;16.77;7.07;;;13.70;66.00;;;;;;5086031;28;20470;-74
2021/10/17 10:56:52;;;;;;;12.88;6.35;;;13.80;64.70;;;;;;5079667;28;20402;-74
2021/10/17 10:59:29;;;;;;;10.98;6.10;;;13.80;65.20;;;;;;5085945;28;20060;-79
2021/10/17 11:02:14;;;;;;;9.77;5.85;;;13.90;65.30;;;;;;5066784;28;20039;-79
2021/10/17 11:04:41;;;;;;;13.35;6.80;;;14.10;65.80;;;;;;5079837;28;20070;-80
2021/10/17 11:07:50;;;;;;;12.52;6.53;;;14.20;63.80;;;;;;5087129;28;20042;-72
2021/10/17 11:10:22;;;;;;;10.10;6.47;;;14.30;64.40;;;;;;5079067;28;20127;-81
2021/10/17 11:12:49;;;;;;;12.85;6.78;;;14.40;64.20;;;;;;5085067;28;20032;-81
2021/10/17 11:15:17;;;;;;;12.68;6.95;;;14.60;64.10;;;;;;5084921;28;20048;-73
2021/10/17 11:17:54;;;;;;;12.73;7.40;;;14.80;63.90;;;;;;5082565;28;20258;-73
2021/10/17 11:20:23;;;;;;;12.05;6.63;;;14.90;60.90;;;;;;5087036;28;20398;-73
2021/10/17 11:22:50;;;;;;;11.68;5.93;;;15.00;61.60;;;;;;5088331;28;20436;-81
2021/10/17 11:25:20;;;;;;;11.60;6.55;;;15.00;61.30;;;;;;5085302;28;20025;-81
2021/10/17 11:27:47;;;;;;;10.18;6.35;;;15.10;61.60;;;;;;5087138;28;20036;-81
2021/10/17 11:30:29;;;;;;;10.93;6.28;;;15.20;61.40;;;;;;5072741;28;20035;-80
2021/10/17 11:32:56;;;;;;;11.52;6.30;;;15.30;60.20;;;;;;5068284;28;20111;-81
2021/10/17 11:35:31;;;;;;;11.48;6.50;;;15.40;60.30;;;;;;5063276;28;20035;-81
2021/10/17 11:37:58;;;;;;;16.00;7.47;;;15.40;59.80;;;;;;5095077;28;20046;-73
2021/10/17 11:40:24;;;;;;;14.07;7.00;;;15.40;58.80;;;;;;5087335;28;20036;-73
2021/10/17 11:42:56;;;;;;;13.70;7.20;;;15.40;59.60;;;;;;5089104;28;20380;-73
2021/10/17 11:45:26;;;;;;;11.90;6.50;;;15.50;59.60;;;;;;5067578;28;20039;-73
2021/10/17 11:47:54;;;;;;;11.10;5.47;;;15.60;60.30;;;;;;5082656;28;20028;-82
2021/10/17 11:50:39;;;;;;;10.35;5.65;;;15.80;60.10;;;;;;5058178;28;20569;-81
2021/10/17 11:53:09;;;;;;;12.90;5.72;;;16.00;59.40;;;;;;5086840;28;20474;-80
2021/10/17 11:55:40;;;;;;;8.75;4.97;;;16.10;57.70;;;;;;5085325;28;20031;-82
2021/10/17 11:58:27;;;;;;;8.68;4.95;;;16.20;57.20;;;;;;5071716;28;20020;-73
2021/10/17 12:01:09;;;;;;;7.88;4.60;;;16.30;56.60;;;;;;5085360;28;20031;-81
2021/10/17 12:03:35;;;;;;;8.93;4.80;;;16.40;55.30;;;;;;5068910;28;20029;-73
2021/10/17 12:06:04;;;;;;;7.60;5.18;;;16.40;56.20;;;;;;5085013;28;20028;-73
2021/10/17 12:08:35;;;;;;;6.85;4.50;;;16.40;56.20;;;;;;5092659;28;20140;-73
2021/10/17 12:11:11;;;;;;;6.68;4.35;;;16.50;55.80;;;;;;5087243;28;20454;-73
2021/10/17 12:13:48;;;;;;;9.02;4.20;;;16.50;55.10;;;;;;5055760;28;20146;-80
2021/10/17 12:16:18;;;;;;;10.02;4.50;;;16.50;55.60;;;;;;5086679;28;20046;-82
2021/10/17 12:18:50;;;;;;;7.18;4.60;;;16.60;54.90;;;;;;5086849;28;20044;-73
2021/10/17 12:21:21;;;;;;;8.37;4.40;;;16.50;54.10;;;;;;5088718;28;20135;-73
2021/10/17 12:23:48;;;;;;;7.45;4.63;;;16.40;53.20;;;;;;5069382;28;20039;-73
2021/10/17 12:26:19;;;;;;;7.43;4.13;;;16.30;54.10;;;;;;5073099;28;20032;-73
2021/10/17 12:29:05;;;;;;;10.00;4.53;;;16.20;55.00;;;;;;5081690;28;20024;-72
2021/10/17 12:31:32;;;;;;;8.23;3.95;;;16.10;55.30;;;;;;5105658;28;20024;-72
2021/10/17 12:33:59;;;;;;;6.57;3.97;;;16.10;56.70;;;;;;5080532;28;20136;-73
2021/10/17 12:36:26;;;;;;;7.97;3.30;;;16.00;55.00;;;;;;5067881;28;20036;-72
2021/10/17 12:39:03;;;;;;;10.23;4.35;;;15.90;55.50;;;;;;5092458;28;20099;-72
2021/10/17 12:41:30;;;;;;;8.85;3.88;;;15.90;54.20;;;;;;5088047;28;20457;-72
2021/10/17 12:44:17;;;;;;;6.60;3.90;;;15.80;54.90;;;;;;5087304;28;20024;-72
2021/10/17 12:47:03;;;;;;;9.43;3.90;;;15.70;55.80;;;;;;5088475;28;20032;-72
2021/10/17 12:49:37;;;;;;;8.70;4.32;;;15.70;56.50;;;;;;5088491;28;20056;-72
2021/10/17 12:52:03;;;;;;;9.45;4.35;;;15.70;57.20;;;;;;5080498;28;20035;-72
2021/10/17 12:54:30;;;;;;;4.78;3.90;;;15.70;56.90;;;;;;5074833;28;20240;-72
2021/10/17 12:57:02;;;;;;;8.68;4.20;;;15.80;57.50;;;;;;5070968;28;20051;-72
2021/10/17 12:59:33;;;;;;;7.07;4.18;;;15.80;56.80;;;;;;5098421;28;20424;-72
2021/10/17 13:02:10;;;;;;;8.95;4.47;;;15.90;56.40;;;;;;5050781;28;20024;-72
2021/10/17 13:04:57;;;;;;;9.15;3.78;;;16.00;56.30;;;;;;5068128;28;20028;-72
2021/10/17 13:07:31;;;;;;;7.40;4.57;;;16.10;56.40;;;;;;5088039;28;20032;-76
2021/10/17 13:10:08;;;;;;;9.52;3.95;;;16.10;57.50;;;;;;5098049;28;20043;-76
2021/10/17 13:12:49;;;;;;;10.02;3.95;;;16.10;57.70;;;;;;5081587;28;20060;-72
2021/10/17 13:15:26;;;;;;;10.93;4.70;;;16.20;58.30;;;;;;5079812;28;20068;-72
2021/10/17 13:17:56;;;;;;;9.00;4.50;;;16.20;56.60;;;;;;5073734;28;20055;-72
2021/10/17 13:20:27;;;;;;;8.75;4.80;;;16.30;57.10;;;;;;5079083;28;20028;-73
2021/10/17 13:22:54;;;;;;;8.05;4.57;;;16.30;55.70;;;;;;5092980;28;20390;-72
2021/10/17 13:25:22;;;;;;;8.55;4.70;;;16.20;56.10;;;;;;5074583;28;20496;-72
2021/10/17 13:27:50;;;;;;;8.98;4.82;;;16.20;55.00;;;;;;5074609;28;20056;-73
2021/10/17 13:30:17;;;;;;;10.48;4.90;;;16.10;55.30;;;;;;5091867;28;20485;-72
2021/10/17 13:32:43;;;;;;;8.90;5.15;;;16.00;55.20;;;;;;5093127;28;20059;-76
2021/10/17 13:35:09;;;;;;;8.80;4.93;;;15.90;55.80;;;;;;5072102;28;20036;-76
2021/10/17 13:37:36;;;;;;;7.47;4.53;;;15.80;56.20;;;;;;5091606;28;20020;-76
2021/10/17 13:40:02;;;;;;;8.30;4.75;;;15.80;56.30;;;;;;5091124;28;20028;-72
2021/10/17 13:42:28;;;;;;;9.90;4.65;;;15.80;56.80;;;;;;5091304;28;20016;-72
2021/10/17 13:44:53;;;;;;;9.27;5.30;;;15.80;57.10;;;;;;5073732;28;20078;-73
2021/10/17 13:47:19;;;;;;;8.00;4.88;;;15.80;55.70;;;;;;5092371;28;20417;-72
2021/10/17 13:49:46;;;;;;;9.80;5.53;;;15.80;56.00;;;;;;5073492;28;20020;-72
2021/10/17 13:52:12;;;;;;;8.73;4.90;;;15.80;55.90;;;;;;5092416;28;20298;-72
2021/10/17 13:54:38;;;;;;;8.27;4.90;;;15.80;56.90;;;;;;5057185;28;20238;-72
2021/10/17 13:57:05;;;;;;;10.13;5.35;;;15.80;58.40;;;;;;5073661;28;20371;-76
2021/10/17 13:59:31;;;;;;;10.32;4.88;;;15.70;56.90;;;;;;5085826;28;20056;-72
2021/10/17 14:01:58;;;;;;;11.75;5.25;;;15.60;57.00;;;;;;5092009;28;20031;-77
2021/10/17 14:04:25;;;;;;;13.13;5.22;;;15.50;56.70;;;;;;5077898;28;20035;-76
2021/10/17 14:06:51;;;;;;;9.20;5.40;;;15.50;58.60;;;;;;5091189;28;20068;-76
2021/10/17 14:09:16;;;;;;;9.25;4.85;;;15.40;58.10;;;;;;5073865;28;20032;-72
2021/10/17 14:11:43;;;;;;;7.43;4.63;;;15.40;58.60;;;;;;5076923;28;20024;-72
2021/10/17 14:14:09;;;;;;;9.05;5.07;;;15.40;59.70;;;;;;5092090;28;20044;-76
2021/10/17 14:16:34;;;;;;;11.18;5.07;;;15.30;58.20;;;;;;5093624;28;20048;-76
2021/10/17 14:19:00;;;;;;;9.55;4.05;;;15.30;58.80;;;;;;5076454;28;20036;-73
2021/10/17 14:21:26;;;;;;;8.85;4.95;;;15.30;58.80;;;;;;5057598;28;20483;-77
2021/10/17 14:23:52;;;;;;;7.95;4.85;;;15.30;59.50;;;;;;5073392;28;20107;-76
2021/10/17 14:26:18;;;;;;;7.88;4.60;;;15.30;59.70;;;;;;5092258;28;20085;-76
2021/10/17 14:28:43;;;;;;;10.05;6.10;;;15.30;59.50;;;;;;5080510;28;20028;-76
2021/10/17 14:31:09;;;;;;;11.55;6.10;;;15.20;58.80;;;;;;5070816;28;20035;-76
2021/10/17 14:33:35;;;;;;;12.27;5.70;;;15.20;59.10;;;;;;5071787;28;20055;-72
2021/10/17 14:36:04;;;;;;;10.23;5.82;;;15.20;60.00;;;;;;5088383;28;20290;-72
2021/10/17 14:38:30;;;;;;;12.73;5.85;;;15.20;60.30;;;;;;5064488;28;20498;-72
2021/10/17 14:40:57;;;;;;;8.25;4.75;;;15.20;59.20;;;;;;5072315;28;20364;-72
2021/10/17 14:43:23;;;;;;;11.90;5.20;;;15.20;60.20;;;;;;5060676;28;20479;-76
2021/10/17 14:45:49;;;;;;;7.10;4.60;;;15.20;61.30;;;;;;5080423;28;20339;-76
2021/10/17 14:48:18;;;;;;;9.68;4.70;;;15.20;61.00;;;;;;5061346;28;20124;-75
2021/10/17 14:50:44;;;;;;;9.50;4.53;;;15.20;61.30;;;;;;5043089;28;20078;-72
2021/10/17 14:53:10;;;;;;;7.82;4.40;;;15.20;60.40;;;;;;5086046;28;20024;-75
2021/10/17 14:55:37;;;;;;;9.98;5.10;;;15.20;60.30;;;;;;5087145;28;20405;-76
2021/10/17 14:58:06;;;;;;;7.50;4.13;;;15.20;60.30;;;;;;5089280;28;20040;-75
2021/10/17 15:00:32;;;;;;;9.55;4.18;;;15.20;60.80;;;;;;5083019;28;20089;-76
2021/10/17 15:02:58;;;;;;;11.02;4.82;;;15.20;61.70;;;;;;5078922;28;20204;-72
2021/10/17 15:05:25;;;;;;;10.38;4.32;;;15.20;61.40;;;;;;5074560;28;20028;-76
2021/10/17 15:07:50;;;;;;;7.80;3.78;;;15.20;61.40;;;;;;5058158;28;20074;-73
2021/10/17 15:10:16;;;;;;;9.63;4.07;;;15.20;62.00;;;;;;5066819;28;20474;-76
2021/10/17 15:12:42;;;;;;;8.43;4.40;;;15.20;62.30;;;;;;5093476;28;20063;-73
2021/10/17 15:15:09;;;;;;;8.70;4.25;;;15.20;62.50;;;;;;5070534;28;20067;-72
2021/10/17 15:17:35;;;;;;;9.00;4.85;;;15.20;63.30;;;;;;5085959;28;20082;-75
2021/10/17 15:20:02;;;;;;;9.25;5.15;;;15.20;62.00;;;;;;5088732;28;20070;-76
2021/10/17 15:22:28;;;;;;;7.72;4.50;;;15.10;62.10;;;;;;5082115;28;20499;-75
2021/10/17 15:24:54;;;;;;;7.28;4.43;;;15.10;61.90;;;;;;5069040;28;20029;-75
2021/10/17 15:27:20;;;;;;;10.20;4.82;;;15.10;63.20;;;;;;5087959;28;20173;-76
2021/10/17 15:29:45;;;;;;;14.13;5.10;;;15.10;63.30;;;;;;5071570;28;20028;-72
2021/10/17 15:32:11;;;;;;;9.32;4.60;;;15.00;63.80;;;;;;5068498;28;20371;-76
2021/10/17 15:34:37;;;;;;;8.65;5.03;;;15.00;63.80;;;;;;5088888;28;20024;-76
2021/10/17 15:37:03;;;;;;;7.60;5.03;;;15.00;63.60;;;;;;5069265;28;20410;-75
2021/10/17 15:39:31;;;;;;;10.00;5.18;;;15.00;64.30;;;;;;5089502;28;20441;-75
2021/10/17 15:41:57;;;;;;;8.73;4.97;;;15.00;64.90;;;;;;5088146;28;20020;-72
2021/10/17 15:44:23;;;;;;;7.60;4.82;;;15.00;65.10;;;;;;5071760;28;20127;-72
2021/10/17 15:46:49;;;;;;;10.10;5.25;;;15.00;65.00;;;;;;5090030;28;20039;-72
2021/10/17 15:49:16;;;;;;;6.28;4.45;;;14.90;65.30;;;;;;5088500;28;20032;-75
2021/10/17 15:51:43;;;;;;;12.30;5.40;;;15.00;65.40;;;;;;5090253;28;20058;-72
2021/10/17 15:54:08;;;;;;;8.95;5.20;;;15.00;65.80;;;;;;5074027;28;20517;-73
2021/10/17 15:56:35;;;;;;;8.80;4.88;;;15.00;66.40;;;;;;5089508;28;20036;-72
2021/10/17 15:59:05;;;;;;;10.77;5.47;;;15.00;66.80;;;;;;5053746;28;20031;-73
2021/10/17 16:01:38;;;;;;;13.05;5.38;;;14.90;66.90;;;;;;5071532;28;20475;-75
2021/10/17 16:04:06;;;;;;;8.45;4.88;;;14.90;67.00;;;;;;5069621;28;20494;-73
2021/10/17 16:06:32;;;;;;;13.50;5.68;;;14.90;67.40;;;;;;5051744;28;20038;-72
2021/10/17 16:08:58;;;;;;;10.23;5.40;;;14.90;67.70;;;;;;5088277;28;20390;-72
2021/10/17 16:11:24;;;;;;;10.32;5.50;;;14.90;67.60;;;;;;5061157;28;20028;-72
2021/10/17 16:13:50;;;;;;;7.93;5.55;;;14.80;67.90;;;;;;5091931;28;20039;-73
2021/10/17 16:16:15;;;;;;;8.60;5.75;;;14.80;68.10;;;;;;5091477;28;20051;-75
2021/10/17 16:18:44;;;;;;;10.00;5.60;;;14.80;68.20;;;;;;5076361;28;20409;-75
2021/10/17 16:21:15;;;;;;;12.65;5.90;;;14.80;68.30;;;;;;5088363;28;20020;-76
2021/10/17 16:23:41;;;;;;;9.00;5.97;;;14.80;68.30;;;;;;5078591;28;20419;-75
2021/10/17 16:26:07;;;;;;;9.57;5.63;;;14.70;68.60;;;;;;5090314;28;20044;-75
2021/10/17 16:28:36;;;;;;;9.82;6.13;;;14.70;68.80;;;;;;5089384;28;20032;-72
2021/10/17 16:31:07;;;;;;;11.00;6.10;;;14.70;68.90;;;;;;5070497;28;20127;-72
2021/10/17 16:33:45;;;;;;;8.93;5.78;;;14.60;69.00;;;;;;5040690;28;20032;-72
2021/10/17 16:36:13;;;;;;;12.32;6.47;;;14.60;69.30;;;;;;5070951;28;20032;-75
2021/10/17 16:38:40;;;;;;;13.00;6.32;;;14.50;69.60;;;;;;5087735;28;20039;-75
2021/10/17 16:41:06;;;;;;;10.13;6.10;;;14.50;69.90;;;;;;5070934;28;20032;-77
2021/10/17 16:43:33;;;;;;;13.05;5.95;;;14.50;70.10;;;;;;5071639;28;20097;-77
2021/10/17 16:46:00;;;;;;;12.52;8.00;;;14.50;70.30;;;;;;5086738;28;20463;-78
2021/10/17 16:48:26;;;;;;;11.90;6.60;;;14.40;70.30;;;;;;5083505;28;20024;-77
2021/10/17 16:50:52;;;;;;;13.02;6.70;;;14.40;70.40;;;;;;5064152;28;20049;-77
2021/10/17 16:53:18;;;;;;;8.80;6.30;;;14.40;70.50;;;;;;5075256;28;20422;-77
2021/10/17 16:55:44;;;;;;;9.70;6.38;;;14.30;70.60;;;;;;5092049;28;20454;-77
2021/10/17 16:58:10;;;;;;;13.75;6.72;;;14.30;70.90;;;;;;5092681;28;20041;-73
2021/10/17 17:00:36;;;;;;;13.85;6.35;;;14.30;71.10;;;;;;5092798;28;20046;-73
2021/10/17 17:03:02;;;;;;;10.10;6.20;;;14.30;71.20;;;;;;5055798;28;20032;-73
2021/10/17 17:05:28;;;;;;;11.52;6.18;;;14.20;71.40;;;;;;5058000;28;20028;-77
2021/10/17 17:07:54;;;;;;;10.02;6.70;;;14.20;71.70;;;;;;5093345;28;20047;-77
2021/10/17 17:10:21;;;;;;;13.95;6.95;;;14.20;71.80;;;;;;5084009;28;20078;-77
2021/10/17 17:12:48;;;;;;;10.05;6.50;;;14.20;72.00;;;;;;5090722;28;20020;-79
2021/10/17 17:15:14;;;;;;;11.00;6.43;;;14.10;72.10;;;;;;5086120;28;20044;-80
2021/10/17 17:17:42;;;;;;;9.98;6.28;;;14.10;72.20;;;;;;5090308;28;20032;-80
2021/10/17 17:20:09;;;;;;;13.73;7.25;;;14.10;72.40;;;;;;5097237;28;20423;-80
2021/10/17 17:22:35;;;;;;;11.48;6.80;;;14.00;72.50;;;;;;5092238;28;20036;-74
2021/10/17 17:25:03;;;;;;;11.48;7.07;;;14.00;72.70;;;;;;5096930;28;20070;-80
2021/10/17 17:27:28;;;;;;;15.00;7.50;;;14.00;72.90;;;;;;5086327;28;20028;-80
2021/10/17 17:29:54;;;;;;;11.32;7.38;;;14.00;73.00;;;;;;5071956;28;20070;-74
2021/10/17 17:32:21;;;;;;;10.10;7.05;;;14.00;73.10;;;;;;5073689;28;20030;-74
2021/10/17 17:34:49;;;;;;;12.15;7.47;;;14.00;73.20;;;;;;5087168;28;20411;-74
2021/10/17 17:37:14;;;;;;;11.10;7.30;;;13.90;73.30;;;;;;5089220;28;20027;-74
2021/10/17 17:39:41;;;;;;;11.65;7.93;;;13.90;73.40;;;;;;5078684;28;20050;-74
2021/10/17 17:42:07;;;;;;;10.27;7.13;;;13.90;73.60;;;;;;5067675;28;20024;-74
2021/10/17 17:44:33;;;;;;;12.95;7.53;;;13.90;73.70;;;;;;5092515;28;20027;-74
2021/10/17 17:46:59;;;;;;;12.38;7.10;;;13.90;73.70;;;;;;5094640;28;20418;-74
2021/10/17 17:49:27;;;;;;;12.60;8.10;;;13.90;73.80;;;;;;5098980;28;20078;-81
2021/10/17 17:51:54;;;;;;;12.23;7.47;;;13.90;74.00;;;;;;5104473;28;20040;-81
2021/10/17 17:54:22;;;;;;;12.15;7.60;;;13.90;74.10;;;;;;5096738;28;20035;-81
2021/10/17 17:56:49;;;;;;;14.90;7.22;;;13.90;74.00;;;;;;5097428;28;20040;-81
2021/10/17 17:59:15;;;;;;;11.75;7.28;;;13.90;74.10;;;;;;5066759;28;20028;-81
2021/10/17 18:01:40;;;;;;;12.85;7.80;;;13.80;74.20;;;;;;5089213;28;20132;-81
2021/10/17 18:04:06;;;;;;;11.80;7.55;;;13.80;74.30;;;;;;5077632;28;20071;-74
2021/10/17 18:06:32;;;;;;;11.40;7.30;;;13.90;74.40;;;;;;5087394;28;20039;-74
2021/10/17 18:08:57;;;;;;;10.38;7.25;;;13.80;74.10;;;;;;5090006;28;20036;-79
2021/10/17 18:11:23;;;;;;;9.55;6.63;;;13.80;74.10;;;;;;5090025;28;20036;-79
2021/10/17 18:13:49;;;;;;;11.13;7.20;;;13.80;74.00;;;;;;5078068;28;20083;-79
2021/10/17 18:16:15;;;;;;;12.10;6.88;;;13.80;73.70;;;;;;5091236;28;20052;-79
2021/10/17 18:18:42;;;;;;;9.15;6.97;;;13.80;73.70;;;;;;5072418;28;21070;-79
2021/10/17 18:21:07;;;;;;;10.43;7.07;;;13.80;73.60;;;;;;5072720;28;20036;-73
2021/10/17 18:23:33;;;;;;;10.45;6.95;;;13.80;74.00;;;;;;5075040;28;20563;-73
2021/10/17 18:26:01;;;;;;;8.98;7.22;;;13.80;73.80;;;;;;5069703;28;20513;-73
2021/10/17 18:28:27;;;;;;;10.07;7.18;;;13.70;73.90;;;;;;5080658;28;20023;-80
2021/10/17 18:30:56;;;;;;;10.57;7.38;;;13.70;74.20;;;;;;5097605;28;20402;-80
2021/10/17 18:33:22;;;;;;;18.58;7.78;;;13.70;74.10;;;;;;5086415;28;20032;-79
2021/10/17 18:35:48;;;;;;;10.30;7.30;;;13.70;74.10;;;;;;5089595;28;20040;-80
2021/10/17 18:38:14;;;;;;;14.75;7.53;;;13.70;74.20;;;;;;5070697;28;20027;-73
2021/10/17 18:40:40;;;;;;;11.73;7.80;;;13.70;74.10;;;;;;5093906;28;20040;-74
2021/10/17 18:43:07;;;;;;;12.52;8.13;;;13.70;74.30;;;;;;5072300;28;20509;-80
2021/10/17 18:45:33;;;;;;;11.65;7.57;;;13.70;74.20;;;;;;5082370;28;20023;-80
2021/10/17 18:47:59;;;;;;;13.38;7.60;;;13.70;74.50;;;;;;5080490;28;20036;-80
2021/10/17 18:50:25;;;;;;;11.20;7.10;;;13.70;74.50;;;;;;5088595;28;20122;-73
2021/10/17 18:52:51;;;;;;;10.98;7.07;;;13.70;74.60;;;;;;5093230;28;20524;-73
2021/10/17 18:55:17;;;;;;;10.32;6.78;;;13.70;74.70;;;;;;5070379;28;20554;-73
2021/10/17 18:57:43;;;;;;;9.02;6.45;;;13.70;74.80;;;;;;5071194;28;20036;-80
2021/10/17 19:00:09;;;;;;;12.20;7.70;;;13.70;74.80;;;;;;5076024;28;20518;-80